• Join FlightAware (Why Join?)
  • Login
  • US Flag 
08:48AM EDT


 

Airport Tracker/Info


-or-


 

Live Flight TrackerFlight Track Log ✈ XOJ549 ✈ 10-May-2013 ✈ KBOS - KBKL

Flight Track Log - Related Links

Times and Time Zones

All times are in EDT time to prevent confusion due to time zone crossing. See the XOJ549 flight status page for this flight to view local times or setup timezone preferences in your user account.

Time Position Orientation Groundspeed Altitude Reporting Facility
EDT Latitude Longitude Course Direction KTS MPH feet Rate Location/Type
03:25PM 42.3667 -70.9833 90° East 127 146 900  Level KA90
03:26PM 42.3667 -70.9167 90° East 209 241 4,800 3,960 Climbing KA90
03:27PM 42.3833 -70.8689 65° Northeast 244 281 7,300 3,900 Climbing Boston Center
03:28PM 42.4156 -70.7922 60° Northeast 307 353 10,800 3,660 Climbing Boston Center
03:29PM 42.5028 -70.7814 North 258 297 14,700 3,900 Climbing Boston Center
03:30PM 42.5542 -70.8758 306° West 261 300 18,700 2,100 Climbing Boston Center
03:31PM 42.6203 -70.9897 308° West 325 374 19,000 600 Climbing Boston Center
03:32PM 42.6864 -71.1014 309° West 360 414 20,000 2,280 Climbing Boston Center
03:33PM 42.7461 -71.2131 306° West 373 429 23,600 3,780 Climbing Boston Center
03:34PM 42.7931 -71.3281 299° West 367 422 27,600 3,360 Climbing Boston Center
03:35PM 42.8003 -71.4497 275° West 354 407 30,400 2,700 Climbing Boston Center
03:36PM 42.8097 -71.5825 276° West 354 407 33,000 2,100 Climbing Boston Center
03:37PM 42.8253 -71.7153 279° West 354 407 35,100 2,160 Climbing Boston Center
03:38PM 42.8389 -71.8767 277° West 354 407 37,800 2,460 Climbing Boston Center
03:39PM 42.8497 -72.0039 277° West 349 402 40,100 1,560 Climbing Boston Center
03:40PM 42.8628 -72.1314 278° West 349 402 41,000 660 Climbing Boston Center
03:41PM 42.8756 -72.2644 278° West 349 402 41,500 480 Climbing Boston Center
03:42PM 42.8964 -72.4061 281° West 364 419 42,000 480 Climbing Boston Center
03:43PM 42.9025 -72.5564 273° West 381 438 42,500 480 Climbing Boston Center
03:44PM 42.9108 -72.6839 275° West 386 444 43,000 240 Climbing Boston Center
03:45PM 42.9228 -72.8711 275° West 399 459 43,000  Level Boston Center
03:46PM 42.9428 -73.0131 281° West 419 482 43,000  Level Boston Center
03:47PM 42.9544 -73.1692 276° West 424 488 43,000  Level Boston Center
03:48PM 42.9681 -73.3253 277° West 424 488 43,000  Level Boston Center
03:49PM 42.9750 -73.4928 273° West 419 482 43,000  Level Boston Center
03:50PM 42.9881 -73.6436 277° West 414 476 43,000  Level Boston Center
03:51PM 43.0008 -73.7969 277° West 414 476 43,000  Level Boston Center
03:52PM 43.0114 -73.9506 275° West 409 471 43,000  Level Boston Center
03:53PM 43.0239 -74.1014 277° West 403 464 43,000  Level Boston Center
03:54PM 43.0361 -74.2553 276° West 408 470 43,000  Level Boston Center
03:55PM 43.0483 -74.4089 276° West 408 470 43,000  Level Boston Center
03:56PM 43.0581 -74.5656 275° West 408 470 43,000  Level Boston Center
03:57PM 43.0711 -74.7508 276° West 408 470 43,000  Level Boston Center
03:58PM 43.0803 -74.9047 275° West 408 470 43,000  Level Boston Center
03:59PM 43.0878 -75.0303 275° West 408 470 43,000  Level Boston Center
04:00PM 43.1003 -75.2156 275° West 413 475 43,000  Level Boston Center
04:01PM 43.1108 -75.3725 275° West 413 475 43,000  Level Boston Center
04:02PM 43.1214 -75.5294 275° West 413 475 43,000  Level Boston Center
04:03PM 43.1317 -75.6836 275° West 413 475 43,000  Level Boston Center
04:04PM 43.1394 -75.8406 274° West 413 475 43,000  Level Boston Center
04:06PM 43.1533 -76.0578 275° West 406 467 43,000  Level Cleveland Center
04:07PM 43.1511 -76.2144 269° West 406 467 43,000  Level Cleveland Center
04:08PM 43.1125 -76.3567 250° West 406 467 43,000  Level Cleveland Center
04:09PM 43.0675 -76.4992 247° West 401 461 43,000  Level Cleveland Center
04:10PM 43.0225 -76.6439 247° West 411 473 43,000  Level Cleveland Center
04:11PM 42.9736 -76.8003 247° West 411 473 43,000  Level Cleveland Center
04:12PM 42.9281 -76.9422 246° West 411 473 43,000 -240 Level Cleveland Center
04:13PM 42.8847 -77.0864 248° West 411 473 42,600 -540 Descending Cleveland Center
04:14PM 42.8408 -77.2278 247° West 411 473 42,000 -840 Descending Cleveland Center
04:15PM 42.7986 -77.3572 246° West 396 456 41,000 -1,080 Descending Cleveland Center
04:16PM 42.7667 -77.4778 250° West 371 427 39,900 -1,140 Descending Cleveland Center
04:17PM 42.7406 -77.6006 254° West 353 406 38,800 -960 Descending Cleveland Center
04:18PM 42.7186 -77.7175 256° West 353 406 38,000 -420 Descending Cleveland Center
04:19PM 42.6906 -77.8486 254° West 353 406 38,000  Level Cleveland Center
04:20PM 42.6558 -77.9744 249° West 358 412 38,000  Level Cleveland Center
04:21PM 42.6147 -78.0975 246° West 358 412 38,000  Level Cleveland Center
04:22PM 42.5717 -78.2233 245° Southwest 358 412 38,000 -480 Level Cleveland Center
04:23PM 42.5303 -78.3461 245° Southwest 364 419 37,100 -960 Descending Cleveland Center
04:24PM 42.4869 -78.4772 246° West 364 419 36,100 -1,020 Descending Cleveland Center
04:25PM 42.4411 -78.6053 244° Southwest 369 425 35,100 -1,020 Descending Cleveland Center
04:26PM 42.3956 -78.7389 245° Southwest 374 430 34,100 -600 Descending Cleveland Center
04:27PM 42.3494 -78.8694 244° Southwest 386 444 34,000 -60 Descending Cleveland Center
04:28PM 42.3036 -79.0025 245° Southwest 386 444 34,000  Level Cleveland Center
04:29PM 42.2614 -79.1242 245° Southwest 380 437 34,000  Level Cleveland Center
04:30PM 42.2169 -79.2458 244° Southwest 375 432 34,000  Level Cleveland Center
04:31PM 42.1744 -79.3672 245° Southwest 363 418 34,000 -240 Level Cleveland Center
04:32PM 42.1278 -79.4997 245° Southwest 363 418 33,600 -1,140 Descending Cleveland Center
04:33PM 42.0872 -79.6264 247° West 363 418 31,800 -2,220 Descending Cleveland Center
04:34PM 42.0572 -79.7639 254° West 363 418 29,200 -2,400 Descending Cleveland Center
04:35PM 42.0203 -79.8564 242° Southwest 369 425 27,100 -2,760 Descending Cleveland Center
04:36PM 41.9375 -79.9664 225° Southwest 347 399 23,700 -3,120 Descending Cleveland Center
04:37PM 41.8586 -80.0172 206° Southwest 342 394 20,900 -3,000 Descending Cleveland Center
04:38PM 41.7669 -80.0569 198° South 349 402 17,700 -2,460 Descending Cleveland Center
04:39PM 41.6819 -80.1189 209° Southwest 335 386 16,000 -900 Descending Cleveland Center
04:40PM 41.6531 -80.2136 248° West 282 325 16,000 -240 Level Cleveland Center
04:41PM 41.6386 -80.3192 260° West 282 325 15,600 -1,500 Descending Cleveland Center
04:42PM 41.6222 -80.4275 259° West 288 331 13,100 -2,700 Descending Cleveland Center
04:43PM 41.6097 -80.5386 261° West 301 346 10,300 -1,560 Descending Cleveland Center
04:44PM 41.5911 -80.6414 256° West 301 346 10,000 -180 Descending Cleveland Center
04:45PM 41.5764 -80.7497 260° West 296 341 10,000  Level Cleveland Center
04:46PM 41.5614 -80.8467 258° West 298 343 10,000  Level Cleveland Center
04:47PM 41.5467 -80.9633 260° West 296 341 10,000  Level Cleveland Center
04:48PM 41.5317 -81.0658 259° West 296 341 10,000 -540 Level Cleveland Center
04:49PM 41.5208 -81.1544 261° West 288 331 9,000 -1,500 Descending Cleveland Center
04:50PM 41.5683 -81.2353 308° West 274 315 7,100 -1,800 Descending Cleveland Center
04:51PM 41.6181 -81.2969 317° Northwest 253 291 5,500 -1,800 Descending Cleveland Center
04:52PM 41.6467 -81.3722 297° West 253 291 3,500 -1,260 Descending Cleveland Center
04:53PM 41.6067 -81.4161 219° Southwest 189 217 3,000 -300 Descending Cleveland Center
04:54PM 41.5697 -81.3408 123° Southeast 90 104 3,000  Level Cleveland Center
04:55PM 41.5361 -81.3792 220° Southwest 203 234 3,000 -120 Level Cleveland Center
04:56PM 41.5481 -81.4489 283° West 192 221 2,800 -180 Descending Cleveland Center
04:57PM 41.5642 -81.5239 286° West 140 161 2,700 -120 Descending Cleveland Center